sensor_id;sensor_type;location;lat;lon;timestamp;pressure;altitude;pressure_sealevel;temperature;humidity
5913;BME280;2982;42.684;23.356;2022-11-10T00:01:32;95532.56;;;6.31;100.00
5913;BME280;2982;42.684;23.356;2022-11-10T00:03:57;95537.78;;;6.25;100.00
5913;BME280;2982;42.684;23.356;2022-11-10T00:06:22;95541.94;;;6.26;100.00
5913;BME280;2982;42.684;23.356;2022-11-10T00:08:50;95535.28;;;6.23;100.00
5913;BME280;2982;42.684;23.356;2022-11-10T00:11:18;95530.38;;;6.18;100.00
5913;BME280;2982;42.684;23.356;2022-11-10T00:13:46;95536.38;;;6.14;100.00
5913;BME280;2982;42.684;23.356;2022-11-10T00:16:12;95520.03;;;5.97;100.00
5913;BME280;2982;42.684;23.356;2022-11-10T00:18:40;95543.00;;;6.18;100.00
5913;BME280;2982;42.684;23.356;2022-11-10T00:21:08;95534.03;;;6.07;100.00
5913;BME280;2982;42.684;23.356;2022-11-10T00:23:34;95532.34;;;6.07;100.00
5913;BME280;2982;42.684;23.356;2022-11-10T00:25:59;95539.84;;;6.10;100.00
5913;BME280;2982;42.684;23.356;2022-11-10T00:28:24;95533.03;;;6.12;100.00
5913;BME280;2982;42.684;23.356;2022-11-10T00:30:52;95534.91;;;6.06;100.00
5913;BME280;2982;42.684;23.356;2022-11-10T00:33:17;95536.66;;;6.02;100.00
5913;BME280;2982;42.684;23.356;2022-11-10T00:35:46;95526.91;;;5.90;100.00
5913;BME280;2982;42.684;23.356;2022-11-10T00:38:11;95538.44;;;5.99;100.00
5913;BME280;2982;42.684;23.356;2022-11-10T00:40:36;95530.13;;;5.95;100.00
5913;BME280;2982;42.684;23.356;2022-11-10T00:43:10;95527.53;;;5.98;100.00
5913;BME280;2982;42.684;23.356;2022-11-10T00:45:51;95520.72;;;6.02;100.00
5913;BME280;2982;42.684;23.356;2022-11-10T00:48:16;95506.63;;;5.93;100.00
5913;BME280;2982;42.684;23.356;2022-11-10T00:50:48;95484.47;;;5.72;100.00
5913;BME280;2982;42.684;23.356;2022-11-10T00:53:13;95467.22;;;5.57;100.00
5913;BME280;2982;42.684;23.356;2022-11-10T00:55:42;95516.91;;;5.86;100.00
5913;BME280;2982;42.684;23.356;2022-11-10T00:58:16;95501.25;;;5.73;100.00
5913;BME280;2982;42.684;23.356;2022-11-10T01:00:42;95519.66;;;5.76;100.00
5913;BME280;2982;42.684;23.356;2022-11-10T01:03:12;95509.69;;;5.72;100.00
5913;BME280;2982;42.684;23.356;2022-11-10T01:05:37;95497.28;;;5.64;100.00
5913;BME280;2982;42.684;23.356;2022-11-10T01:08:03;95514.69;;;5.73;100.00
5913;BME280;2982;42.684;23.356;2022-11-10T01:10:28;95503.22;;;5.62;100.00
5913;BME280;2982;42.684;23.356;2022-11-10T01:12:54;95504.88;;;5.63;100.00
5913;BME280;2982;42.684;23.356;2022-11-10T01:15:20;95504.91;;;5.61;100.00
5913;BME280;2982;42.684;23.356;2022-11-10T01:17:45;95507.47;;;5.60;100.00
5913;BME280;2982;42.684;23.356;2022-11-10T01:20:10;95511.72;;;5.58;100.00
5913;BME280;2982;42.684;23.356;2022-11-10T01:22:36;95508.44;;;5.54;100.00
5913;BME280;2982;42.684;23.356;2022-11-10T01:25:01;95505.00;;;5.57;100.00
5913;BME280;2982;42.684;23.356;2022-11-10T01:27:27;95506.69;;;5.56;100.00
5913;BME280;2982;42.684;23.356;2022-11-10T01:29:52;95514.22;;;5.59;100.00
5913;BME280;2982;42.684;23.356;2022-11-10T01:32:17;95500.91;;;5.53;100.00
5913;BME280;2982;42.684;23.356;2022-11-10T01:34:43;95505.97;;;5.53;100.00
5913;BME280;2982;42.684;23.356;2022-11-10T01:37:08;95504.41;;;5.47;100.00
5913;BME280;2982;42.684;23.356;2022-11-10T01:39:34;95504.38;;;5.49;100.00
5913;BME280;2982;42.684;23.356;2022-11-10T01:41:59;95501.97;;;5.44;100.00
5913;BME280;2982;42.684;23.356;2022-11-10T01:44:25;95480.56;;;5.26;100.00
5913;BME280;2982;42.684;23.356;2022-11-10T01:46:50;95501.34;;;5.35;100.00
5913;BME280;2982;42.684;23.356;2022-11-10T01:49:22;95502.34;;;5.27;100.00
5913;BME280;2982;42.684;23.356;2022-11-10T01:52:03;95506.41;;;5.35;100.00
5913;BME280;2982;42.684;23.356;2022-11-10T01:54:33;95502.22;;;5.33;100.00
5913;BME280;2982;42.684;23.356;2022-11-10T01:57:03;95494.78;;;5.27;100.00
5913;BME280;2982;42.684;23.356;2022-11-10T01:59:33;95501.44;;;5.31;100.00
5913;BME280;2982;42.684;23.356;2022-11-10T02:02:08;95495.50;;;5.32;100.00
5913;BME280;2982;42.684;23.356;2022-11-10T02:04:35;95481.63;;;5.16;100.00
5913;BME280;2982;42.684;23.356;2022-11-10T02:07:01;95485.72;;;5.22;100.00
5913;BME280;2982;42.684;23.356;2022-11-10T02:09:26;95499.91;;;5.24;100.00
5913;BME280;2982;42.684;23.356;2022-11-10T02:11:53;95498.53;;;5.11;100.00
5913;BME280;2982;42.684;23.356;2022-11-10T02:14:19;95499.41;;;5.09;100.00
5913;BME280;2982;42.684;23.356;2022-11-10T02:16:45;95500.13;;;5.15;100.00
5913;BME280;2982;42.684;23.356;2022-11-10T02:19:20;95510.28;;;5.12;100.00
5913;BME280;2982;42.684;23.356;2022-11-10T02:21:46;95513.72;;;5.08;100.00
5913;BME280;2982;42.684;23.356;2022-11-10T02:24:12;95501.25;;;5.04;100.00
5913;BME280;2982;42.684;23.356;2022-11-10T02:26:48;95514.41;;;5.15;100.00
5913;BME280;2982;42.684;23.356;2022-11-10T02:29:14;95518.78;;;5.07;100.00
5913;BME280;2982;42.684;23.356;2022-11-10T02:31:40;95524.69;;;5.06;100.00
5913;BME280;2982;42.684;23.356;2022-11-10T02:34:05;95520.69;;;4.97;100.00
5913;BME280;2982;42.684;23.356;2022-11-10T02:36:31;95497.38;;;4.87;100.00
5913;BME280;2982;42.684;23.356;2022-11-10T02:38:59;95488.28;;;4.82;100.00
5913;BME280;2982;42.684;23.356;2022-11-10T02:41:24;95519.66;;;5.04;100.00
5913;BME280;2982;42.684;23.356;2022-11-10T02:43:51;95524.81;;;5.00;100.00
5913;BME280;2982;42.684;23.356;2022-11-10T02:46:17;95532.41;;;4.98;100.00
5913;BME280;2982;42.684;23.356;2022-11-10T02:48:42;95522.47;;;4.92;100.00
5913;BME280;2982;42.684;23.356;2022-11-10T02:51:08;95519.00;;;4.98;100.00
5913;BME280;2982;42.684;23.356;2022-11-10T02:53:33;95529.84;;;5.00;100.00
5913;BME280;2982;42.684;23.356;2022-11-10T02:55:58;95529.03;;;4.99;100.00
5913;BME280;2982;42.684;23.356;2022-11-10T02:58:23;95525.59;;;5.02;100.00
5913;BME280;2982;42.684;23.356;2022-11-10T03:00:49;95529.81;;;5.01;100.00
5913;BME280;2982;42.684;23.356;2022-11-10T03:03:14;95530.03;;;4.91;100.00
5913;BME280;2982;42.684;23.356;2022-11-10T03:05:39;95529.19;;;4.90;100.00
5913;BME280;2982;42.684;23.356;2022-11-10T03:08:04;95532.44;;;4.97;100.00
5913;BME280;2982;42.684;23.356;2022-11-10T03:10:30;95535.69;;;5.02;100.00
5913;BME280;2982;42.684;23.356;2022-11-10T03:12:57;95535.75;;;4.99;100.00
5913;BME280;2982;42.684;23.356;2022-11-10T03:15:23;95527.50;;;4.91;100.00
5913;BME280;2982;42.684;23.356;2022-11-10T03:17:49;95530.13;;;4.86;100.00
5913;BME280;2982;42.684;23.356;2022-11-10T03:20:14;95524.97;;;4.92;100.00
5913;BME280;2982;42.684;23.356;2022-11-10T03:22:40;95526.69;;;4.90;100.00
5913;BME280;2982;42.684;23.356;2022-11-10T03:25:06;95541.94;;;4.84;100.00
5913;BME280;2982;42.684;23.356;2022-11-10T03:27:32;95537.13;;;4.73;100.00
5913;BME280;2982;42.684;23.356;2022-11-10T03:29:57;95520.53;;;4.63;100.00
5913;BME280;2982;42.684;23.356;2022-11-10T03:32:22;95538.69;;;4.79;100.00
5913;BME280;2982;42.684;23.356;2022-11-10T03:34:47;95547.91;;;4.80;100.00
5913;BME280;2982;42.684;23.356;2022-11-10T03:37:13;95541.09;;;4.85;100.00
5913;BME280;2982;42.684;23.356;2022-11-10T03:39:38;95532.94;;;4.72;100.00
5913;BME280;2982;42.684;23.356;2022-11-10T03:42:04;95526.47;;;4.61;100.00
5913;BME280;2982;42.684;23.356;2022-11-10T03:44:29;95548.03;;;4.72;100.00
5913;BME280;2982;42.684;23.356;2022-11-10T03:46:55;95543.94;;;4.68;100.00
5913;BME280;2982;42.684;23.356;2022-11-10T03:49:20;95542.16;;;4.72;100.00
5913;BME280;2982;42.684;23.356;2022-11-10T03:51:45;95533.97;;;4.62;100.00
5913;BME280;2982;42.684;23.356;2022-11-10T03:54:11;95542.44;;;4.60;100.00
5913;BME280;2982;42.684;23.356;2022-11-10T03:56:36;95550.81;;;4.60;100.00
5913;BME280;2982;42.684;23.356;2022-11-10T03:59:01;95548.31;;;4.59;100.00
5913;BME280;2982;42.684;23.356;2022-11-10T04:01:27;95547.47;;;4.58;100.00
5913;BME280;2982;42.684;23.356;2022-11-10T04:03:52;95558.28;;;4.63;100.00
5913;BME280;2982;42.684;23.356;2022-11-10T04:06:17;95554.94;;;4.63;100.00
5913;BME280;2982;42.684;23.356;2022-11-10T04:08:43;95554.94;;;4.63;100.00
5913;BME280;2982;42.684;23.356;2022-11-10T04:11:08;95550.75;;;4.63;100.00
5913;BME280;2982;42.684;23.356;2022-11-10T04:13:33;95556.53;;;4.67;100.00
5913;BME280;2982;42.684;23.356;2022-11-10T04:15:58;95560.75;;;4.66;100.00
5913;BME280;2982;42.684;23.356;2022-11-10T04:18:24;95525.19;;;4.41;100.00
5913;BME280;2982;42.684;23.356;2022-11-10T04:20:54;95556.03;;;4.51;100.00
5913;BME280;2982;42.684;23.356;2022-11-10T04:23:22;95566.09;;;4.50;100.00
5913;BME280;2982;42.684;23.356;2022-11-10T04:25:54;95531.41;;;4.22;100.00
5913;BME280;2982;42.684;23.356;2022-11-10T04:28:19;95561.94;;;4.49;100.00
5913;BME280;2982;42.684;23.356;2022-11-10T04:30:44;95523.69;;;4.33;100.00
5913;BME280;2982;42.684;23.356;2022-11-10T04:33:10;95562.94;;;4.40;100.00
5913;BME280;2982;42.684;23.356;2022-11-10T04:35:35;95572.81;;;4.49;100.00
5913;BME280;2982;42.684;23.356;2022-11-10T04:38:01;95573.66;;;4.50;100.00
5913;BME280;2982;42.684;23.356;2022-11-10T04:40:26;95569.56;;;4.44;100.00
5913;BME280;2982;42.684;23.356;2022-11-10T04:42:51;95570.47;;;4.40;100.00
5913;BME280;2982;42.684;23.356;2022-11-10T04:45:16;95570.53;;;4.38;100.00
5913;BME280;2982;42.684;23.356;2022-11-10T04:47:41;95572.22;;;4.36;100.00
5913;BME280;2982;42.684;23.356;2022-11-10T04:50:07;95567.28;;;4.33;100.00
5913;BME280;2982;42.684;23.356;2022-11-10T04:52:32;95553.78;;;4.36;100.00
5913;BME280;2982;42.684;23.356;2022-11-10T04:54:58;95559.84;;;4.69;100.00
5913;BME280;2982;42.684;23.356;2022-11-10T04:57:23;95563.91;;;4.76;100.00
5913;BME280;2982;42.684;23.356;2022-11-10T04:59:48;95548.09;;;4.71;100.00
5913;BME280;2982;42.684;23.356;2022-11-10T05:02:13;95558.09;;;4.74;100.00
5913;BME280;2982;42.684;23.356;2022-11-10T05:04:39;95564.97;;;4.66;100.00
5913;BME280;2982;42.684;23.356;2022-11-10T05:07:04;95570.88;;;4.63;100.00
5913;BME280;2982;42.684;23.356;2022-11-10T05:09:29;95576.66;;;4.67;100.00
5913;BME280;2982;42.684;23.356;2022-11-10T05:11:54;95578.28;;;4.71;100.00
5913;BME280;2982;42.684;23.356;2022-11-10T05:14:20;95578.19;;;4.75;100.00
5913;BME280;2982;42.684;23.356;2022-11-10T05:16:45;95574.69;;;4.81;100.00
5913;BME280;2982;42.684;23.356;2022-11-10T05:19:10;95577.09;;;4.88;100.00
5913;BME280;2982;42.684;23.356;2022-11-10T05:21:35;95577.75;;;4.95;100.00
5913;BME280;2982;42.684;23.356;2022-11-10T05:24:01;95583.41;;;5.06;100.00
5913;BME280;2982;42.684;23.356;2022-11-10T05:26:26;95581.47;;;5.19;100.00
5913;BME280;2982;42.684;23.356;2022-11-10T05:28:51;95577.03;;;5.30;100.00
5913;BME280;2982;42.684;23.356;2022-11-10T05:31:17;95585.03;;;5.47;100.00
5913;BME280;2982;42.684;23.356;2022-11-10T05:33:42;95576.53;;;5.51;100.00
5913;BME280;2982;42.684;23.356;2022-11-10T05:36:09;95586.25;;;5.68;100.00
5913;BME280;2982;42.684;23.356;2022-11-10T05:38:34;95556.03;;;5.65;100.00
5913;BME280;2982;42.684;23.356;2022-11-10T05:41:00;95572.47;;;5.81;100.00
5913;BME280;2982;42.684;23.356;2022-11-10T05:43:25;95581.28;;;6.00;100.00
5913;BME280;2982;42.684;23.356;2022-11-10T05:45:50;95588.53;;;6.12;100.00
5913;BME280;2982;42.684;23.356;2022-11-10T05:48:16;95575.91;;;6.14;100.00
5913;BME280;2982;42.684;23.356;2022-11-10T05:50:42;95590.56;;;6.32;100.00
5913;BME280;2982;42.684;23.356;2022-11-10T05:53:08;95601.97;;;6.45;100.00
5913;BME280;2982;42.684;23.356;2022-11-10T05:55:33;95598.38;;;6.54;100.00
5913;BME280;2982;42.684;23.356;2022-11-10T05:57:58;95599.94;;;6.59;100.00
5913;BME280;2982;42.684;23.356;2022-11-10T06:00:27;95604.88;;;6.62;100.00
5913;BME280;2982;42.684;23.356;2022-11-10T06:05:22;95608.50;;;6.85;100.00
5913;BME280;2982;42.684;23.356;2022-11-10T06:07:47;95615.00;;;6.93;100.00
5913;BME280;2982;42.684;23.356;2022-11-10T06:10:12;95616.31;;;7.06;100.00
5913;BME280;2982;42.684;23.356;2022-11-10T06:12:37;95622.75;;;7.17;100.00
5913;BME280;2982;42.684;23.356;2022-11-10T06:15:03;95622.47;;;7.27;100.00
5913;BME280;2982;42.684;23.356;2022-11-10T06:17:28;95622.13;;;7.38;100.00
5913;BME280;2982;42.684;23.356;2022-11-10T06:19:54;95624.25;;;7.51;100.00
5913;BME280;2982;42.684;23.356;2022-11-10T06:22:19;95635.81;;;7.60;100.00
5913;BME280;2982;42.684;23.356;2022-11-10T06:24:44;95639.00;;;7.65;100.00
5913;BME280;2982;42.684;23.356;2022-11-10T06:27:09;95623.97;;;7.61;100.00
5913;BME280;2982;42.684;23.356;2022-11-10T06:29:35;95646.94;;;7.81;100.00
5913;BME280;2982;42.684;23.356;2022-11-10T06:32:00;95647.66;;;7.86;100.00
5913;BME280;2982;42.684;23.356;2022-11-10T06:34:26;95648.28;;;7.92;100.00
5913;BME280;2982;42.684;23.356;2022-11-10T06:36:51;95653.13;;;7.98;100.00
5913;BME280;2982;42.684;23.356;2022-11-10T06:39:17;95667.03;;;8.13;100.00
5913;BME280;2982;42.684;23.356;2022-11-10T06:41:42;95658.22;;;8.25;100.00
5913;BME280;2982;42.684;23.356;2022-11-10T06:44:07;95665.56;;;8.34;100.00
5913;BME280;2982;42.684;23.356;2022-11-10T06:46:32;95664.84;;;8.29;100.00
5913;BME280;2982;42.684;23.356;2022-11-10T06:48:58;95668.94;;;8.33;100.00
5913;BME280;2982;42.684;23.356;2022-11-10T06:51:23;95672.78;;;8.45;100.00
5913;BME280;2982;42.684;23.356;2022-11-10T06:53:48;95681.13;;;8.48;100.00
5913;BME280;2982;42.684;23.356;2022-11-10T06:56:13;95663.94;;;8.31;100.00
5913;BME280;2982;42.684;23.356;2022-11-10T06:58:39;95676.94;;;8.47;100.00
5913;BME280;2982;42.684;23.356;2022-11-10T07:01:04;95681.81;;;8.53;100.00
5913;BME280;2982;42.684;23.356;2022-11-10T07:03:29;95668.66;;;8.42;100.00
5913;BME280;2982;42.684;23.356;2022-11-10T07:05:55;95675.66;;;8.60;100.00
5913;BME280;2982;42.684;23.356;2022-11-10T07:08:20;95680.41;;;8.69;100.00
5913;BME280;2982;42.684;23.356;2022-11-10T07:10:51;95656.84;;;8.67;100.00
5913;BME280;2982;42.684;23.356;2022-11-10T07:13:17;95681.16;;;8.96;100.00
5913;BME280;2982;42.684;23.356;2022-11-10T07:15:42;95678.59;;;8.98;100.00
5913;BME280;2982;42.684;23.356;2022-11-10T07:18:08;95691.75;;;9.07;100.00
5913;BME280;2982;42.684;23.356;2022-11-10T07:20:33;95687.72;;;9.26;100.00
5913;BME280;2982;42.684;23.356;2022-11-10T07:23:00;95709.13;;;9.18;100.00
5913;BME280;2982;42.684;23.356;2022-11-10T07:25:27;95678.09;;;9.11;100.00
5913;BME280;2982;42.684;23.356;2022-11-10T07:27:57;95692.81;;;9.25;100.00
5913;BME280;2982;42.684;23.356;2022-11-10T07:30:23;95703.19;;;9.19;100.00
5913;BME280;2982;42.684;23.356;2022-11-10T07:32:59;95700.44;;;9.25;100.00
5913;BME280;2982;42.684;23.356;2022-11-10T07:35:25;95696.19;;;9.25;100.00
5913;BME280;2982;42.684;23.356;2022-11-10T07:37:51;95672.94;;;9.14;100.00
5913;BME280;2982;42.684;23.356;2022-11-10T07:40:16;95696.03;;;9.30;100.00
5913;BME280;2982;42.684;23.356;2022-11-10T07:42:42;95689.38;;;9.27;100.00
5913;BME280;2982;42.684;23.356;2022-11-10T07:45:07;95708.03;;;9.48;100.00
5913;BME280;2982;42.684;23.356;2022-11-10T07:47:33;95705.34;;;9.53;100.00
5913;BME280;2982;42.684;23.356;2022-11-10T07:49:58;95707.31;;;9.68;100.00
5913;BME280;2982;42.684;23.356;2022-11-10T07:52:23;95697.47;;;9.60;100.00
5913;BME280;2982;42.684;23.356;2022-11-10T07:54:48;95696.06;;;9.75;100.00
5913;BME280;2982;42.684;23.356;2022-11-10T07:57:14;95708.34;;;9.86;100.00
5913;BME280;2982;42.684;23.356;2022-11-10T07:59:39;95708.47;;;9.83;100.00
5913;BME280;2982;42.684;23.356;2022-11-10T08:02:05;95698.28;;;9.84;100.00
5913;BME280;2982;42.684;23.356;2022-11-10T08:04:30;95710.59;;;9.93;100.00
5913;BME280;2982;42.684;23.356;2022-11-10T08:06:55;95709.66;;;9.96;100.00
5913;BME280;2982;42.684;23.356;2022-11-10T08:09:21;95711.84;;;10.05;100.00
5913;BME280;2982;42.684;23.356;2022-11-10T08:11:46;95709.16;;;10.08;100.00
5913;BME280;2982;42.684;23.356;2022-11-10T08:14:11;95698.41;;;10.03;100.00
5913;BME280;2982;42.684;23.356;2022-11-10T08:16:36;95700.59;;;10.12;100.00
5913;BME280;2982;42.684;23.356;2022-11-10T08:19:02;95701.31;;;10.15;100.00
5913;BME280;2982;42.684;23.356;2022-11-10T08:21:27;95706.72;;;10.28;100.00
5913;BME280;2982;42.684;23.356;2022-11-10T08:23:52;95711.69;;;10.31;100.00
5913;BME280;2982;42.684;23.356;2022-11-10T08:26:17;95693.91;;;10.31;100.00
5913;BME280;2982;42.684;23.356;2022-11-10T08:28:43;95694.06;;;10.48;100.00
5913;BME280;2982;42.684;23.356;2022-11-10T08:31:08;95710.78;;;10.74;100.00
5913;BME280;2982;42.684;23.356;2022-11-10T08:33:33;95723.13;;;10.83;100.00
5913;BME280;2982;42.684;23.356;2022-11-10T08:36:00;95723.44;;;10.76;100.00
5913;BME280;2982;42.684;23.356;2022-11-10T08:38:25;95722.63;;;10.75;100.00
5913;BME280;2982;42.684;23.356;2022-11-10T08:40:50;95726.09;;;10.52;100.00
5913;BME280;2982;42.684;23.356;2022-11-10T08:43:17;95690.28;;;10.37;100.00
5913;BME280;2982;42.684;23.356;2022-11-10T08:45:45;95717.59;;;10.74;100.00
5913;BME280;2982;42.684;23.356;2022-11-10T08:48:16;95717.66;;;10.92;100.00
5913;BME280;2982;42.684;23.356;2022-11-10T08:50:41;95712.38;;;10.97;100.00
5913;BME280;2982;42.684;23.356;2022-11-10T08:53:10;95721.59;;;10.99;100.00
5913;BME280;2982;42.684;23.356;2022-11-10T08:55:36;95722.59;;;11.16;100.00
5913;BME280;2982;42.684;23.356;2022-11-10T08:58:04;95718.22;;;11.19;100.00
5913;BME280;2982;42.684;23.356;2022-11-10T09:00:30;95732.91;;;11.33;100.00
5913;BME280;2982;42.684;23.356;2022-11-10T09:03:02;95723.00;;;11.45;100.00
5913;BME280;2982;42.684;23.356;2022-11-10T09:05:28;95728.53;;;11.55;100.00
5913;BME280;2982;42.684;23.356;2022-11-10T09:07:53;95734.97;;;11.62;100.00
5913;BME280;2982;42.684;23.356;2022-11-10T09:10:18;95732.84;;;11.72;100.00
5913;BME280;2982;42.684;23.356;2022-11-10T09:12:44;95719.97;;;11.76;100.00
5913;BME280;2982;42.684;23.356;2022-11-10T09:15:10;95726.50;;;11.82;100.00
5913;BME280;2982;42.684;23.356;2022-11-10T09:17:37;95736.41;;;11.88;100.00
5913;BME280;2982;42.684;23.356;2022-11-10T09:20:03;95703.25;;;11.71;100.00
5913;BME280;2982;42.684;23.356;2022-11-10T09:22:29;95739.78;;;11.88;100.00
5913;BME280;2982;42.684;23.356;2022-11-10T09:24:54;95708.28;;;11.72;100.00
5913;BME280;2982;42.684;23.356;2022-11-10T09:27:19;95727.94;;;11.87;100.00
5913;BME280;2982;42.684;23.356;2022-11-10T09:29:45;95726.50;;;11.82;100.00
5913;BME280;2982;42.684;23.356;2022-11-10T09:32:10;95723.53;;;11.91;100.00
5913;BME280;2982;42.684;23.356;2022-11-10T09:34:35;95702.22;;;11.94;100.00
5913;BME280;2982;42.684;23.356;2022-11-10T09:37:01;95718.66;;;12.05;100.00
5913;BME280;2982;42.684;23.356;2022-11-10T09:39:26;95689.41;;;11.95;100.00
5913;BME280;2982;42.684;23.356;2022-11-10T09:41:51;95700.28;;;11.99;100.00
5913;BME280;2982;42.684;23.356;2022-11-10T09:44:26;95678.59;;;11.90;100.00
5913;BME280;2982;42.684;23.356;2022-11-10T09:52:05;57515.69;;;-143.17;100.00
5913;BME280;2982;42.684;23.356;2022-11-10T09:54:42;57515.69;;;-143.17;100.00
5913;BME280;2982;42.684;23.356;2022-11-10T09:57:15;57515.69;;;-143.17;100.00
5913;BME280;2982;42.684;23.356;2022-11-10T09:59:41;57515.69;;;-143.17;100.00
5913;BME280;2982;42.684;23.356;2022-11-10T10:10:07;57515.69;;;-143.17;100.00
5913;BME280;2982;42.684;23.356;2022-11-10T10:13:13;57515.69;;;-143.17;100.00
5913;BME280;2982;42.684;23.356;2022-11-10T10:18:53;57515.69;;;-143.17;100.00
5913;BME280;2982;42.684;23.356;2022-11-10T10:24:20;57515.69;;;-143.17;100.00
5913;BME280;2982;42.684;23.356;2022-11-10T10:26:52;57515.69;;;-143.17;100.00
5913;BME280;2982;42.684;23.356;2022-11-10T10:29:25;57515.69;;;-143.17;100.00
5913;BME280;2982;42.684;23.356;2022-11-10T10:31:52;57515.69;;;-143.17;100.00
5913;BME280;2982;42.684;23.356;2022-11-10T10:34:22;57515.69;;;-143.17;100.00
5913;BME280;2982;42.684;23.356;2022-11-10T10:36:48;57515.69;;;-143.17;100.00
5913;BME280;2982;42.684;23.356;2022-11-10T10:39:16;57515.69;;;-143.17;100.00
5913;BME280;2982;42.684;23.356;2022-11-10T10:41:44;57515.69;;;-143.17;100.00
5913;BME280;2982;42.684;23.356;2022-11-10T10:44:15;57515.69;;;-143.17;100.00
5913;BME280;2982;42.684;23.356;2022-11-10T10:47:05;57515.69;;;-143.17;100.00
5913;BME280;2982;42.684;23.356;2022-11-10T10:49:31;57515.69;;;-143.17;100.00
5913;BME280;2982;42.684;23.356;2022-11-10T10:54:29;57515.69;;;-143.17;100.00
5913;BME280;2982;42.684;23.356;2022-11-10T10:59:26;57515.69;;;-143.17;100.00
5913;BME280;2982;42.684;23.356;2022-11-10T11:01:52;57515.69;;;-143.17;100.00
5913;BME280;2982;42.684;23.356;2022-11-10T11:07:23;57515.69;;;-143.17;100.00
5913;BME280;2982;42.684;23.356;2022-11-10T11:09:49;57515.69;;;-143.17;100.00
5913;BME280;2982;42.684;23.356;2022-11-10T11:14:45;57515.69;;;-143.17;100.00
5913;BME280;2982;42.684;23.356;2022-11-10T11:17:17;57515.69;;;-143.17;100.00
5913;BME280;2982;42.684;23.356;2022-11-10T11:19:42;57515.69;;;-143.17;100.00
5913;BME280;2982;42.684;23.356;2022-11-10T11:40:15;57515.69;;;-143.17;100.00
5913;BME280;2982;42.684;23.356;2022-11-10T11:48:28;57515.69;;;-143.17;100.00
5913;BME280;2982;42.684;23.356;2022-11-10T11:56:43;57515.69;;;-143.17;100.00
5913;BME280;2982;42.684;23.356;2022-11-10T11:59:31;57515.69;;;-143.17;100.00
5913;BME280;2982;42.684;23.356;2022-11-10T12:13:35;57515.69;;;-143.17;100.00
5913;BME280;2982;42.684;23.356;2022-11-10T12:27:27;57515.69;;;-143.17;100.00
5913;BME280;2982;42.684;23.356;2022-11-10T12:30:02;57515.69;;;-143.17;100.00
5913;BME280;2982;42.684;23.356;2022-11-10T12:32:35;57515.69;;;-143.17;100.00
5913;BME280;2982;42.684;23.356;2022-11-10T12:35:10;57515.69;;;-143.17;100.00
5913;BME280;2982;42.684;23.356;2022-11-10T12:38:05;57515.69;;;-143.17;100.00
5913;BME280;2982;42.684;23.356;2022-11-10T12:40:56;57515.69;;;-143.17;100.00
5913;BME280;2982;42.684;23.356;2022-11-10T12:43:56;57515.69;;;-143.17;100.00
5913;BME280;2982;42.684;23.356;2022-11-10T12:49:29;57515.69;;;-143.17;100.00
5913;BME280;2982;42.684;23.356;2022-11-10T12:54:41;57515.69;;;-143.17;100.00
5913;BME280;2982;42.684;23.356;2022-11-10T12:57:12;57515.69;;;-143.17;100.00
5913;BME280;2982;42.684;23.356;2022-11-10T12:59:52;57515.69;;;-143.17;100.00
5913;BME280;2982;42.684;23.356;2022-11-10T13:02:39;57515.69;;;-143.17;100.00
5913;BME280;2982;42.684;23.356;2022-11-10T13:07:48;57515.69;;;-143.17;100.00
5913;BME280;2982;42.684;23.356;2022-11-10T13:18:05;57515.69;;;-143.17;100.00
5913;BME280;2982;42.684;23.356;2022-11-10T13:20:51;57515.69;;;-143.17;100.00
5913;BME280;2982;42.684;23.356;2022-11-10T13:25:56;57515.69;;;-143.17;100.00
5913;BME280;2982;42.684;23.356;2022-11-10T13:36:58;57515.69;;;-143.17;100.00
5913;BME280;2982;42.684;23.356;2022-11-10T13:39:30;57515.69;;;-143.17;100.00
5913;BME280;2982;42.684;23.356;2022-11-10T13:44:34;57515.69;;;-143.17;100.00
5913;BME280;2982;42.684;23.356;2022-11-10T13:58:24;57515.69;;;-143.17;100.00
5913;BME280;2982;42.684;23.356;2022-11-10T14:06:14;57515.69;;;-143.17;100.00
5913;BME280;2982;42.684;23.356;2022-11-10T14:08:45;57515.69;;;-143.17;100.00
5913;BME280;2982;42.684;23.356;2022-11-10T14:11:16;57515.69;;;-143.17;100.00
5913;BME280;2982;42.684;23.356;2022-11-10T14:14:22;57515.69;;;-143.17;100.00
5913;BME280;2982;42.684;23.356;2022-11-10T14:16:49;57515.69;;;-143.17;100.00
5913;BME280;2982;42.684;23.356;2022-11-10T14:19:37;57515.69;;;-143.17;100.00
5913;BME280;2982;42.684;23.356;2022-11-10T14:22:19;57515.69;;;-143.17;100.00
5913;BME280;2982;42.684;23.356;2022-11-10T14:25:05;57515.69;;;-143.17;100.00
5913;BME280;2982;42.684;23.356;2022-11-10T14:27:38;57515.69;;;-143.17;100.00
5913;BME280;2982;42.684;23.356;2022-11-10T14:33:02;57515.69;;;-143.17;100.00
5913;BME280;2982;42.684;23.356;2022-11-10T14:35:31;57515.69;;;-143.17;100.00
5913;BME280;2982;42.684;23.356;2022-11-10T14:38:02;57515.69;;;-143.17;100.00
5913;BME280;2982;42.684;23.356;2022-11-10T14:40:28;57515.69;;;-143.17;100.00
5913;BME280;2982;42.684;23.356;2022-11-10T14:42:54;57515.69;;;-143.17;100.00
5913;BME280;2982;42.684;23.356;2022-11-10T14:45:25;57515.69;;;-143.17;100.00
5913;BME280;2982;42.684;23.356;2022-11-10T14:47:58;57515.69;;;-143.17;100.00
5913;BME280;2982;42.684;23.356;2022-11-10T14:50:29;57515.69;;;-143.17;100.00
5913;BME280;2982;42.684;23.356;2022-11-10T14:53:19;57515.69;;;-143.17;100.00
5913;BME280;2982;42.684;23.356;2022-11-10T14:55:49;57515.69;;;-143.17;100.00
5913;BME280;2982;42.684;23.356;2022-11-10T14:58:31;57515.69;;;-143.17;100.00
5913;BME280;2982;42.684;23.356;2022-11-10T15:00:59;57515.69;;;-143.17;100.00
5913;BME280;2982;42.684;23.356;2022-11-10T15:03:35;57515.69;;;-143.17;100.00
5913;BME280;2982;42.684;23.356;2022-11-10T15:06:03;57515.69;;;-143.17;100.00
5913;BME280;2982;42.684;23.356;2022-11-10T15:08:29;57515.69;;;-143.17;100.00
5913;BME280;2982;42.684;23.356;2022-11-10T15:10:56;57515.69;;;-143.17;100.00
5913;BME280;2982;42.684;23.356;2022-11-10T15:16:25;57515.69;;;-143.17;100.00
5913;BME280;2982;42.684;23.356;2022-11-10T15:18:52;57515.69;;;-143.17;100.00
5913;BME280;2982;42.684;23.356;2022-11-10T15:21:19;57515.69;;;-143.17;100.00
5913;BME280;2982;42.684;23.356;2022-11-10T15:23:51;57515.69;;;-143.17;100.00